Time;durP1;ratioP1;P1;durP2;ratioP2;P2;SDS_P1;SDS_P2;PMS_P1;PMS_P2;Temp;Humidity;BMP_temperature;BMP_pressure;BME280_temperature;BME280_humidity;BME280_pressure;Samples;Min_cycle;Max_cycle;Signal;HPM_P1;HPM_P2
2024/04/19 05:00:19;;;;;;;;;;;;;;;5.47;100.00;98313.81;1856619;76;20162;-73
2024/04/19 05:02:46;;;;;;;;;;;;;;;5.45;100.00;98318.70;1824449;78;20146;-73
2024/04/19 05:05:13;;;;;;;;;;;;;;;5.50;100.00;98321.83;1824698;77;20161;-73
2024/04/19 05:07:39;;;;;;;;;;;;;;;5.57;100.00;98323.10;1823951;77;20445;-71
2024/04/19 05:10:06;;;;;;;;;;;;;;;5.64;100.00;98328.22;1829451;78;20464;-70
2024/04/19 05:12:33;;;;;;;;;;;;;;;5.73;100.00;98334.09;1818834;77;20207;-72
2024/04/19 05:14:59;;;;;;;;;;;;;;;5.81;100.00;98334.44;1819795;78;20146;-70
2024/04/19 05:17:26;;;;;;;;;;;;;;;5.89;100.00;98334.82;1829773;78;20106;-69
2024/04/19 05:19:52;;;;;;;;;;;;;;;5.98;100.00;98340.69;1817486;78;20147;-72
2024/04/19 05:22:18;;;;;;;;;;;;;;;6.07;100.00;98344.88;1791628;78;20156;-70
2024/04/19 05:24:47;;;;;;;;;;;;;;;6.12;100.00;98350.58;1821913;78;20098;-71
2024/04/19 05:27:14;;;;;;;;;;;;;;;6.16;100.00;98358.03;1824821;78;20131;-72
2024/04/19 05:29:40;;;;;;;;;;;;;;;6.22;100.00;98358.11;1826678;78;20160;-73
2024/04/19 05:32:06;;;;;;;;;;;;;;;6.27;100.00;98363.34;1826542;78;20137;-73
2024/04/19 05:34:33;;;;;;;;;;;;;;;6.35;100.00;98363.67;1826057;78;20356;-71
2024/04/19 05:36:59;;;;;;;;;;;;;;;6.42;100.00;98365.83;1827911;78;20117;-71
2024/04/19 05:39:26;;;;;;;;;;;;;;;6.48;100.00;98373.19;1823512;78;20115;-72
2024/04/19 05:41:52;;;;;;;;;;;;;;;6.54;100.00;98376.20;1829376;78;20147;-73
2024/04/19 05:44:19;;;;;;;;;;;;;;;6.60;100.00;98371.92;1775317;80;20130;-70
2024/04/19 05:46:46;;;;;;;;;;;;;;;6.65;100.00;98381.50;1830724;78;20090;-71
2024/04/19 05:49:13;;;;;;;;;;;;;;;6.68;100.00;98388.23;1830011;78;20513;-70
2024/04/19 05:51:39;;;;;;;;;;;;;;;6.71;100.00;98387.20;1832069;78;20111;-73
2024/04/19 05:54:05;;;;;;;;;;;;;;;6.71;100.00;98398.38;1831026;78;20141;-71
2024/04/19 05:56:32;;;;;;;;;;;;;;;6.72;100.00;98394.03;1831370;78;20192;-69
2024/04/19 05:59:03;;;;;;;;;;;;;;;6.77;100.00;98395.38;1819898;78;20458;-69
2024/04/19 06:01:30;;;;;;;;;;;;;;;6.84;100.00;98399.66;1801661;79;20154;-72
2024/04/19 06:03:58;;;;;;;;;;;;;;;6.95;100.00;98405.77;1807028;79;20149;-70
2024/04/19 06:06:24;;;;;;;;;;;;;;;7.12;100.00;98400.77;1804286;79;20102;-69
2024/04/19 06:08:51;;;;;;;;;;;;;;;7.27;100.00;98413.94;1809182;79;20415;-70
2024/04/19 06:11:17;;;;;;;;;;;;;;;7.40;100.00;98412.63;1802763;79;20103;-71
2024/04/19 06:13:44;;;;;;;;;;;;;;;7.44;100.00;98419.27;1820780;79;20082;-69
2024/04/19 06:16:10;;;;;;;;;;;;;;;7.47;100.00;98426.82;1816782;78;20830;-71
2024/04/19 06:18:39;;;;;;;;;;;;;;;7.53;100.00;98429.45;1820163;79;20110;-70
2024/04/19 06:21:05;;;;;;;;;;;;;;;7.60;100.00;98435.84;1822306;79;20190;-70
2024/04/19 06:23:32;;;;;;;;;;;;;;;7.67;100.00;98429.30;1794995;79;20093;-67
2024/04/19 06:26:06;;;;;;;;;;;;;;;7.75;100.00;98439.14;1800153;79;20108;-68
2024/04/19 06:28:35;;;;;;;;;;;;;;;7.77;100.00;98441.98;1812143;79;20113;-71
2024/04/19 06:31:11;;;;;;;;;;;;;;;7.83;100.00;98452.39;1819467;79;20518;-72
2024/04/19 06:33:38;;;;;;;;;;;;;;;7.98;100.00;98452.62;1820993;79;20118;-69
2024/04/19 06:36:05;;;;;;;;;;;;;;;8.18;100.00;98458.96;1819370;78;20145;-70
2024/04/19 06:38:33;;;;;;;;;;;;;;;8.35;100.00;98459.45;1787720;78;20097;-68
2024/04/19 06:40:59;;;;;;;;;;;;;;;8.52;100.00;98455.62;1820553;79;20098;-70
2024/04/19 06:43:26;;;;;;;;;;;;;;;8.71;100.00;98465.96;1813880;79;20113;-68
2024/04/19 06:45:58;;;;;;;;;;;;;;;8.96;100.00;98469.22;1820775;79;20116;-69
2024/04/19 06:48:22;;;;;;;;;;;;;;;9.14;100.00;98458.41;1819402;79;20158;-70
2024/04/19 06:50:48;;;;;;;;;;;;;;;9.16;100.00;98472.93;1822780;79;20193;-69
2024/04/19 06:53:14;;;;;;;;;;;;;;;9.11;100.00;98480.70;1821836;78;20129;-72
2024/04/19 06:55:41;;;;;;;;;;;;;;;9.02;100.00;98483.51;1815178;79;20127;-69
2024/04/19 06:58:11;;;;;;;;;;;;;;;8.94;100.00;98488.44;1810660;79;20157;-70
2024/04/19 07:00:38;;;;;;;;;;;;;;;8.85;100.00;98493.83;1823769;77;20130;-70
2024/04/19 07:03:05;;;;;;;;;;;;;;;8.79;100.00;98496.91;1823206;78;20133;-69
2024/04/19 07:05:32;;;;;;;;;;;;;;;8.79;100.00;98512.95;1821742;78;20184;-69
2024/04/19 07:07:58;;;;;;;;;;;;;;;8.84;100.00;98518.60;1819963;78;20151;-70
2024/04/19 07:10:24;;;;;;;;;;;;;;;8.95;100.00;98509.56;1827376;78;20133;-70
2024/04/19 07:12:51;;;;;;;;;;;;;;;9.08;100.00;98512.91;1745920;82;20176;-70
2024/04/19 07:15:17;;;;;;;;;;;;;;;9.21;100.00;98508.44;1747116;80;20142;-71
2024/04/19 07:17:44;;;;;;;;;;;;;;;9.28;100.00;98518.73;1757692;81;20122;-70
2024/04/19 07:20:10;;;;;;;;;;;;;;;9.37;100.00;98523.72;1759975;81;20145;-70
2024/04/19 07:22:37;;;;;;;;;;;;;;;9.52;100.00;98519.14;1759232;80;20111;-70
2024/04/19 07:25:03;;;;;;;;;;;;;;;9.70;100.00;98525.52;1762642;81;20112;-69
2024/04/19 07:27:34;;;;;;;;;;;;;;;9.81;100.00;98527.30;1762489;80;20123;-68
2024/04/19 07:30:00;;;;;;;;;;;;;;;9.87;100.00;98525.53;1769033;80;20128;-68
2024/04/19 07:32:26;;;;;;;;;;;;;;;9.90;100.00;98539.13;1777617;80;20365;-71
2024/04/19 07:34:52;;;;;;;;;;;;;;;9.91;100.00;98547.28;1775568;80;20111;-70
2024/04/19 07:37:19;;;;;;;;;;;;;;;9.80;100.00;98544.67;1765445;80;20158;-70
2024/04/19 07:39:46;;;;;;;;;;;;;;;9.67;100.00;98558.23;1751142;80;20174;-69
2024/04/19 07:42:13;;;;;;;;;;;;;;;9.50;100.00;98552.20;1762772;80;20104;-71
2024/04/19 07:44:40;;;;;;;;;;;;;;;9.35;100.00;98561.97;1769614;80;20560;-69
2024/04/19 07:47:07;;;;;;;;;;;;;;;9.21;100.00;98561.69;1762732;80;20126;-70
2024/04/19 07:49:34;;;;;;;;;;;;;;;9.08;100.00;98566.62;1778076;80;20135;-70
2024/04/19 07:52:00;;;;;;;;;;;;;;;8.93;100.00;98578.94;1775858;80;20135;-70
2024/04/19 07:54:26;;;;;;;;;;;;;;;8.80;100.00;98585.95;1750354;80;20118;-71
2024/04/19 07:56:53;;;;;;;;;;;;;;;8.77;100.00;98575.34;1780107;80;20132;-67
2024/04/19 07:59:19;;;;;;;;;;;;;;;8.73;100.00;98588.64;1756072;80;20534;-70
2024/04/19 08:01:45;;;;;;;;;;;;;;;8.69;100.00;98597.95;1757487;80;20127;-69
2024/04/19 08:04:11;;;;;;;;;;;;;;;8.70;100.00;98611.75;1748003;82;20168;-68
2024/04/19 08:06:39;;;;;;;;;;;;;;;8.74;100.00;98613.19;1742267;82;20186;-68
2024/04/19 08:09:05;;;;;;;;;;;;;;;8.79;100.00;98615.46;1781950;80;20137;-69
2024/04/19 08:11:31;;;;;;;;;;;;;;;8.79;100.00;98619.36;1780527;80;20430;-69
2024/04/19 08:46:07;;;;;;;;;;;;;;;9.24;100.00;98691.32;1868538;76;20939;-69
2024/04/19 08:48:35;;;;;;;;;;;;;;;9.21;100.00;98692.84;1827739;77;20206;-70
2024/04/19 08:51:03;;;;;;;;;;;;;;;9.19;100.00;98703.84;1813000;77;20129;-71
2024/04/19 08:53:32;;;;;;;;;;;;;;;9.11;100.00;98702.25;1845565;77;20103;-72
2024/04/19 08:56:15;;;;;;;;;;;;;;;9.01;100.00;98711.63;1781241;80;20102;-72
2024/04/19 08:58:53;;;;;;;;;;;;;;;8.95;100.00;98715.48;1800298;79;20146;-69
2024/04/19 09:01:20;;;;;;;;;;;;;;;8.90;100.00;98723.23;1800527;79;20101;-69
2024/04/19 09:03:47;;;;;;;;;;;;;;;8.91;100.00;98725.72;1800232;80;20136;-73
2024/04/19 09:06:14;;;;;;;;;;;;;;;8.98;100.00;98726.95;1800765;80;20129;-71
2024/04/19 09:12:15;;;;;;;;;;;;;;;8.97;100.00;98746.53;1742863;81;20176;-69
2024/04/19 09:14:54;;;;;;;;;;;;;;;8.94;100.00;98755.36;1727731;81;20108;-73
2024/04/19 09:17:26;;;;;;;;;;;;;;;8.96;100.00;98760.45;1717374;82;20449;-72
2024/04/19 09:19:59;;;;;;;;;;;;;;;9.06;100.00;98763.23;1789769;78;20574;-70
2024/04/19 09:22:26;;;;;;;;;;;;;;;9.18;100.00;98763.68;1833631;78;20096;-70
2024/04/19 09:24:54;;;;;;;;;;;;;;;9.33;100.00;98777.69;1833426;78;20104;-69
2024/04/19 09:27:24;;;;;;;;;;;;;;;9.50;100.00;98775.67;1833560;77;20108;-70
2024/04/19 09:29:49;;;;;;;;;;;;;;;9.73;100.00;98785.22;1833269;78;20380;-71
2024/04/19 09:32:28;;;;;;;;;;;;;;;9.98;100.00;98785.58;1833191;77;20103;-72
2024/04/19 09:35:13;;;;;;;;;;;;;;;10.18;100.00;98788.81;1811941;78;20179;-72
2024/04/19 09:37:54;;;;;;;;;;;;;;;10.39;100.00;98785.13;1812058;78;20127;-72
2024/04/19 09:40:23;;;;;;;;;;;;;;;10.59;100.00;98800.05;1833539;77;20385;-71
2024/04/19 09:42:50;;;;;;;;;;;;;;;10.80;100.00;98793.67;1803289;78;20105;-72
2024/04/19 09:45:18;;;;;;;;;;;;;;;10.99;100.00;98791.31;1794817;80;20443;-71
2024/04/19 09:47:44;;;;;;;;;;;;;;;11.10;100.00;98796.17;1790270;80;20177;-71
2024/04/19 09:50:11;;;;;;;;;;;;;;;11.23;100.00;98802.06;1789884;80;20106;-70
2024/04/19 09:52:38;;;;;;;;;;;;;;;11.36;100.00;98804.89;1789955;80;20427;-69
2024/04/19 09:55:10;;;;;;;;;;;;;;;11.47;100.00;98806.66;1789980;80;20083;-68
2024/04/19 09:57:38;;;;;;;;;;;;;;;11.50;100.00;98823.36;1778822;80;20160;-70
2024/04/19 10:00:07;;;;;;;;;;;;;;;11.53;100.00;98815.30;1776713;80;20165;-70
2024/04/19 10:02:43;;;;;;;;;;;;;;;11.53;100.00;98828.81;1807640;77;20113;-71
2024/04/19 10:05:11;;;;;;;;;;;;;;;11.55;100.00;98841.25;1790147;79;20414;-71
2024/04/19 10:07:38;;;;;;;;;;;;;;;11.59;100.00;98842.19;1802365;79;20153;-70
2024/04/19 10:10:05;;;;;;;;;;;;;;;11.62;100.00;98847.14;1801012;79;20122;-70
2024/04/19 10:12:33;;;;;;;;;;;;;;;11.66;100.00;98847.25;1810501;79;20106;-70
2024/04/19 10:14:59;;;;;;;;;;;;;;;11.74;100.00;98851.86;1801825;79;20412;-72
2024/04/19 10:17:26;;;;;;;;;;;;;;;11.85;100.00;98861.00;1802997;79;20095;-69
2024/04/19 10:20:11;;;;;;;;;;;;;;;11.94;100.00;98863.36;1811564;79;20107;-71
2024/04/19 10:23:07;;;;;;;;;;;;;;;11.95;100.00;98867.14;1775879;79;20101;-70
2024/04/19 10:25:39;;;;;;;;;;;;;;;11.89;100.00;98876.77;1794867;79;20138;-71
2024/04/19 10:28:09;;;;;;;;;;;;;;;11.75;100.00;98870.94;1790993;79;20126;-68
2024/04/19 10:30:35;;;;;;;;;;;;;;;11.54;100.00;98898.25;1808153;79;20123;-69
2024/04/19 10:33:19;;;;;;;;;;;;;;;;;;;;;
2024/04/19 10:35:48;;;;;;;;;;;;;;;11.17;100.00;98914.60;1797964;79;20450;-67
2024/04/19 10:38:30;;;;;;;;;;;;;;;10.93;100.00;98933.73;1769429;80;20393;-69
2024/04/19 10:40:57;;;;;;;;;;;;;;;10.69;100.00;98929.06;1737323;82;20192;-70
2024/04/19 10:43:25;;;;;;;;;;;;;;;10.55;100.00;98930.08;1697557;81;20109;-68
2024/04/19 10:45:53;;;;;;;;;;;;;;;10.51;100.00;98939.05;1741415;81;20104;-69
2024/04/19 10:48:20;;;;;;;;;;;;;;;10.48;100.00;98947.08;1740961;81;20413;-70
2024/04/19 10:50:47;;;;;;;;;;;;;;;10.47;100.00;98941.52;1744623;81;20254;-69
2024/04/19 10:53:16;;;;;;;;;;;;;;;10.46;100.00;98954.63;1738470;81;20112;-71
2024/04/19 10:55:42;;;;;;;;;;;;;;;10.39;100.00;98963.85;1743660;81;20139;-71
2024/04/19 10:58:08;;;;;;;;;;;;;;;10.35;100.00;98976.25;1746895;82;20358;-69
2024/04/19 11:00:34;;;;;;;;;;;;;;;10.34;100.00;98976.72;1744611;82;20132;-70
2024/04/19 11:03:02;;;;;;;;;;;;;;;10.33;100.00;98989.84;1732148;82;20112;-70
2024/04/19 11:05:29;;;;;;;;;;;;;;;10.28;100.00;99000.58;1734580;81;20127;-72
2024/04/19 11:07:55;;;;;;;;;;;;;;;10.29;100.00;98992.30;1704873;82;20100;-69
2024/04/19 11:10:22;;;;;;;;;;;;;;;10.26;100.00;99002.92;1736657;81;20144;-71
2024/04/19 11:12:48;;;;;;;;;;;;;;;10.27;100.00;99004.59;1788422;80;20107;-72
2024/04/19 11:15:14;;;;;;;;;;;;;;;10.29;100.00;99007.44;1752383;81;20142;-70
2024/04/19 11:17:41;;;;;;;;;;;;;;;10.37;100.00;99015.17;1737093;81;20135;-69
2024/04/19 11:20:08;;;;;;;;;;;;;;;10.39;100.00;99033.64;1740528;81;20241;-73
2024/04/19 11:22:37;;;;;;;;;;;;;;;10.36;100.00;99035.16;1736891;82;20136;-71
2024/04/19 11:25:07;;;;;;;;;;;;;;;10.31;100.00;99046.36;1746406;81;20099;-73
2024/04/19 11:27:34;;;;;;;;;;;;;;;10.30;100.00;99046.83;1731713;82;20108;-71
2024/04/19 11:30:01;;;;;;;;;;;;;;;10.31;100.00;99044.59;1737333;82;20128;-71
2024/04/19 11:32:28;;;;;;;;;;;;;;;10.33;100.00;99049.22;1734341;82;20124;-71
2024/04/19 11:34:54;;;;;;;;;;;;;;;10.35;100.00;99048.64;1752736;82;20113;-71
2024/04/19 11:37:21;;;;;;;;;;;;;;;10.42;100.00;99054.69;1742184;82;20086;-72
2024/04/19 11:39:48;;;;;;;;;;;;;;;10.52;100.00;99053.93;1740133;81;20119;-71
2024/04/19 11:42:14;;;;;;;;;;;;;;;10.65;100.00;99049.52;1737766;82;20140;-70
2024/04/19 11:44:42;;;;;;;;;;;;;;;10.81;100.00;99053.59;1739382;81;20125;-72
2024/04/19 11:47:08;;;;;;;;;;;;;;;10.97;100.00;99063.27;1745198;81;20167;-71
2024/04/19 11:49:37;;;;;;;;;;;;;;;11.12;100.00;99054.80;1749011;81;20086;-71
2024/04/19 11:52:04;;;;;;;;;;;;;;;11.26;100.00;99063.71;1738973;81;20445;-72
2024/04/19 11:54:31;;;;;;;;;;;;;;;11.36;100.00;99061.62;1770187;81;20132;-72
2024/04/19 11:56:59;;;;;;;;;;;;;;;11.49;100.00;99067.22;1759495;80;20123;-80
2024/04/19 11:59:25;;;;;;;;;;;;;;;11.64;100.00;99073.87;1763395;80;20091;-79
2024/04/19 12:01:52;;;;;;;;;;;;;;;11.80;100.00;99072.27;1753697;80;20107;-79
2024/04/19 12:04:19;;;;;;;;;;;;;;;11.91;100.00;99080.94;1768985;80;20524;-82
2024/04/19 12:06:47;;;;;;;;;;;;;;;12.00;100.00;99080.21;1751824;80;20107;-73
2024/04/19 12:09:17;;;;;;;;;;;;;;;12.02;100.00;99085.31;1759016;80;20210;-76
2024/04/19 12:11:44;;;;;;;;;;;;;;;11.95;100.00;99092.81;1764648;80;20126;-69
2024/04/19 12:14:12;;;;;;;;;;;;;;;11.86;100.00;99096.59;1760340;81;20135;-71
2024/04/19 12:16:40;;;;;;;;;;;;;;;11.73;100.00;99099.73;1753357;81;20143;-72
2024/04/19 12:19:08;;;;;;;;;;;;;;;11.56;100.00;99112.28;1752379;81;20150;-72
2024/04/19 12:21:35;;;;;;;;;;;;;;;11.35;100.00;99110.78;1751472;81;20107;-72
2024/04/19 12:24:01;;;;;;;;;;;;;;;11.07;100.00;99114.23;1748487;82;20115;-71
2024/04/19 12:26:28;;;;;;;;;;;;;;;10.80;100.00;99119.64;1765655;80;20200;-76
2024/04/19 12:28:55;;;;;;;;;;;;;;;10.61;100.00;99113.62;1774734;80;20092;-75
2024/04/19 12:31:22;;;;;;;;;;;;;;;10.53;100.00;99119.36;1775292;80;20099;-77
2024/04/19 12:33:49;;;;;;;;;;;;;;;10.56;100.00;99123.52;1764925;80;20131;-76
2024/04/19 12:36:15;;;;;;;;;;;;;;;10.64;100.00;99122.52;1760728;80;20084;-73
2024/04/19 12:38:45;;;;;;;;;;;;;;;10.78;100.00;99120.25;1768075;80;20111;-75
2024/04/19 12:41:11;;;;;;;;;;;;;;;10.94;100.00;99123.39;1748493;82;20155;-70
2024/04/19 12:43:39;;;;;;;;;;;;;;;11.03;100.00;99118.83;1770531;80;20183;-75
2024/04/19 12:46:05;;;;;;;;;;;;;;;11.11;100.00;99121.72;1767507;80;20099;-76
2024/04/19 12:48:33;;;;;;;;;;;;;;;11.18;100.00;99121.63;1757919;80;20736;-73
2024/04/19 12:51:14;;;;;;;;;;;;;;;11.25;100.00;99121.98;1756096;81;20174;-75
2024/04/19 12:53:39;;;;;;;;;;;;;;;11.26;100.00;99131.00;1722523;82;20169;-78
2024/04/19 12:56:05;;;;;;;;;;;;;;;11.23;100.00;99142.95;1754728;82;20490;-80
2024/04/19 12:58:33;;;;;;;;;;;;;;;11.15;100.00;99144.47;1754442;79;20098;-75
2024/04/19 13:01:03;;;;;;;;;;;;;;;11.11;100.00;99143.03;1754196;82;20118;-77
2024/04/19 13:03:32;;;;;;;;;;;;;;;11.09;100.00;99147.05;1754536;82;20161;-81
2024/04/19 13:06:00;;;;;;;;;;;;;;;11.12;100.00;99149.43;1754720;82;20161;-75
2024/04/19 13:08:31;;;;;;;;;;;;;;;11.21;100.00;99146.61;1728236;82;20137;-74
2024/04/19 13:10:58;;;;;;;;;;;;;;;11.32;100.00;99144.88;1754754;82;20162;-71
2024/04/19 13:13:31;;;;;;;;;;;;;;;11.42;100.00;99154.17;1754191;82;20185;-79
2024/04/19 13:16:06;;;;;;;;;;;;;;;11.48;100.00;99155.50;1749622;82;20181;-78
2024/04/19 13:18:39;;;;;;;;;;;;;;;11.49;100.00;99158.00;1783656;80;20097;-75
2024/04/19 13:21:06;;;;;;;;;;;;;;;11.51;100.00;99163.93;1758283;81;20138;-77
2024/04/19 13:23:50;;;;;;;;;;;;;;;11.51;100.00;99160.02;1758041;81;20095;-69
2024/04/19 13:26:16;;;;;;;;;;;;;;;11.55;100.00;99165.37;1752422;82;20202;-72
2024/04/19 13:28:43;;;;;;;;;;;;;;;11.59;100.00;99165.50;1754213;82;20095;-74
2024/04/19 13:31:10;;;;;;;;;;;;;;;11.61;100.00;99172.71;1756258;80;20110;-75
2024/04/19 13:33:40;;;;;;;;;;;;;;;11.60;100.00;99169.74;1756012;81;20099;-75
2024/04/19 13:36:10;;;;;;;;;;;;;;;11.61;100.00;99168.80;1754594;82;20106;-73
2024/04/19 13:38:38;;;;;;;;;;;;;;;11.62;100.00;99174.84;1763977;81;20148;-70
2024/04/19 13:41:06;;;;;;;;;;;;;;;11.64;100.00;99185.99;1761277;80;20106;-71
2024/04/19 13:43:33;;;;;;;;;;;;;;;11.65;100.00;99188.48;1756896;80;20753;-76
2024/04/19 13:46:02;;;;;;;;;;;;;;;11.66;100.00;99187.55;1756777;80;20111;-69
2024/04/19 13:48:36;;;;;;;;;;;;;;;11.66;100.00;99194.53;1766490;81;20136;-70
2024/04/19 13:51:02;;;;;;;;;;;;;;;11.64;100.00;99189.91;1770545;80;20148;-71
2024/04/19 13:53:30;;;;;;;;;;;;;;;11.59;100.00;99206.39;1767978;80;20118;-67
2024/04/19 13:55:57;;;;;;;;;;;;;;;11.51;100.00;99212.16;1757506;80;20103;-70
2024/04/19 14:17:10;;;;;;;;;;;;;;;10.99;100.00;99255.45;1882001;76;20859;-72
2024/04/19 14:19:37;;;;;;;;;;;;;;;10.84;100.00;99256.51;1865612;77;20185;-71
